Time;durP1;ratioP1;P1;durP2;ratioP2;P2;SDS_P1;SDS_P2;PMS_P1;PMS_P2;Temp;Humidity;BMP_temperature;BMP_pressure;BME280_temperature;BME280_humidity;BME280_pressure;Samples;Min_cycle;Max_cycle;Signal;HPM_P1;HPM_P2
2021/01/21 00:01:11;;;;;;;59.90;25.95;;;;;;;-6.31;86.33;99209.80;1748416;81;21273;-55
2021/01/21 00:03:40;;;;;;;61.60;28.65;;;;;;;-6.26;86.04;99215.20;1757619;80;21186;-55
2021/01/21 00:06:09;;;;;;;62.03;29.57;;;;;;;-6.21;85.98;99229.88;1761762;80;21278;-54
2021/01/21 00:08:37;;;;;;;68.42;31.05;;;;;;;-6.17;85.94;99233.53;1761944;80;21272;-55
2021/01/21 00:11:05;;;;;;;63.13;28.65;;;;;;;-6.05;85.78;99230.76;1761727;80;21584;-54
2021/01/21 00:13:33;;;;;;;64.12;27.52;;;;;;;-5.97;85.42;99219.67;1762092;81;21142;-54
2021/01/21 00:16:02;;;;;;;69.95;31.85;;;;;;;-5.89;84.97;99224.89;1761986;81;21272;-55
2021/01/21 00:18:30;;;;;;;66.05;30.68;;;;;;;-5.95;84.68;99231.98;1761948;80;21283;-55
2021/01/21 00:20:58;;;;;;;70.10;30.37;;;;;;;-5.95;84.92;99244.94;1762017;81;21260;-56
2021/01/21 00:23:30;;;;;;;58.13;28.07;;;;;;;-5.89;84.88;99232.43;1761739;81;21154;-55
2021/01/21 00:25:59;;;;;;;66.20;28.30;;;;;;;-5.89;84.65;99225.28;1762027;81;21327;-54
2021/01/21 00:28:27;;;;;;;65.83;31.60;;;;;;;-5.91;84.65;99224.27;1761737;81;21359;-54
2021/01/21 00:30:55;;;;;;;69.37;30.95;;;;;;;-5.92;84.88;99230.06;1761941;80;21111;-54
2021/01/21 00:33:22;;;;;;;65.90;28.42;;;;;;;-5.83;84.76;99219.85;1761731;81;21158;-54
2021/01/21 00:35:50;;;;;;;66.37;31.33;;;;;;;-5.82;84.41;99221.63;1761901;80;21545;-54
2021/01/21 00:38:18;;;;;;;67.15;30.15;;;;;;;-5.82;84.62;99210.31;1762016;81;21300;-54
2021/01/21 00:40:46;;;;;;;65.00;30.08;;;;;;;-5.78;84.60;99209.39;1761852;81;21580;-54
2021/01/21 00:43:13;;;;;;;58.90;28.45;;;;;;;-5.70;84.38;99204.97;1761715;81;21284;-53
2021/01/21 00:45:43;;;;;;;62.65;28.15;;;;;;;-5.68;84.27;99190.89;1761882;80;21299;-56
2021/01/21 00:48:10;;;;;;;70.10;29.67;;;;;;;-5.69;84.18;99189.14;1761865;80;21154;-54
2021/01/21 00:50:38;;;;;;;60.92;28.17;;;;;;;-5.79;84.17;99189.19;1761770;81;21150;-57
2021/01/21 00:53:08;;;;;;;64.67;29.42;;;;;;;-5.92;84.71;99183.58;1761584;80;21103;-55
2021/01/21 00:55:37;;;;;;;72.30;32.85;;;;;;;-5.93;85.17;99201.55;1762023;81;21150;-56
2021/01/21 00:58:05;;;;;;;68.57;31.05;;;;;;;-5.99;85.11;99182.24;1761724;81;21146;-55
2021/01/21 01:00:33;;;;;;;64.55;28.83;;;;;;;-6.06;85.55;99187.92;1762011;81;21150;-54
2021/01/21 01:03:02;;;;;;;65.75;30.72;;;;;;;-6.08;85.88;99197.86;1757968;81;21225;-54
2021/01/21 01:05:31;;;;;;;62.62;28.73;;;;;;;-5.99;85.81;99182.24;1748494;81;21569;-53
2021/01/21 01:08:01;;;;;;;63.17;28.95;;;;;;;-5.97;85.69;99212.14;1748451;81;21135;-54
2021/01/21 01:10:29;;;;;;;65.80;30.23;;;;;;;-6.04;86.04;99201.09;1748618;82;21154;-54
2021/01/21 01:12:59;;;;;;;61.60;29.25;;;;;;;-6.10;86.38;99206.91;1748546;81;21147;-54
2021/01/21 01:15:31;;;;;;;59.75;28.05;;;;;;;-6.12;86.56;99171.98;1737884;82;21271;-54
2021/01/21 01:18:00;;;;;;;67.22;30.60;;;;;;;-6.06;86.56;99202.98;1748567;81;21309;-54
2021/01/21 01:20:29;;;;;;;63.33;28.38;;;;;;;-6.08;86.57;99186.91;1748337;81;21225;-54
2021/01/21 01:22:57;;;;;;;63.45;27.17;;;;;;;-6.07;86.70;99163.18;1748450;81;21151;-53
2021/01/21 01:25:25;;;;;;;65.05;29.15;;;;;;;-6.09;86.85;99165.94;1748382;82;21305;-53
2021/01/21 01:27:53;;;;;;;66.15;29.98;;;;;;;-6.02;86.99;99178.63;1748634;81;21111;-54
2021/01/21 01:30:22;;;;;;;69.15;29.27;;;;;;;-5.92;86.64;99172.27;1748712;82;21680;-54
2021/01/21 01:32:52;;;;;;;76.67;34.03;;;;;;;-5.84;86.51;99179.16;1748586;81;21157;-55
2021/01/21 01:35:20;;;;;;;61.25;29.55;;;;;;;-5.82;86.45;99187.31;1748574;81;21159;-55
2021/01/21 01:37:49;;;;;;;69.42;31.42;;;;;;;-5.72;86.41;99180.99;1737854;82;21292;-54
2021/01/21 01:40:19;;;;;;;62.00;30.32;;;;;;;-5.71;86.17;99171.80;1748640;82;21657;-54
2021/01/21 01:42:48;;;;;;;64.87;29.67;;;;;;;-5.60;86.22;99173.50;1748099;81;21589;-55
2021/01/21 01:45:19;;;;;;;64.92;29.27;;;;;;;-5.53;85.78;99143.05;1748558;81;21589;-54
2021/01/21 01:47:48;;;;;;;64.87;31.15;;;;;;;-5.52;85.65;99178.77;1748469;81;21175;-53
2021/01/21 01:50:18;;;;;;;64.72;29.45;;;;;;;-5.56;85.72;99159.16;1744435;81;21720;-53
2021/01/21 01:52:46;;;;;;;65.50;29.57;;;;;;;-5.55;85.84;99167.19;1738030;82;21162;-55
2021/01/21 01:55:16;;;;;;;70.10;30.75;;;;;;;-5.54;85.99;99167.70;1748341;81;21143;-55
2021/01/21 01:57:52;;;;;;;79.22;32.85;;;;;;;-5.56;85.93;99159.16;1748011;81;21695;-55
2021/01/21 02:00:21;;;;;;;65.97;30.02;;;;;;;-5.48;86.11;99158.11;1748753;82;21688;-54
2021/01/21 02:02:52;;;;;;;67.15;30.52;;;;;;;-5.34;85.75;99160.79;1748134;81;21593;-56
2021/01/21 02:05:21;;;;;;;61.55;30.10;;;;;;;-5.41;85.47;99151.05;1748779;82;21182;-55
2021/01/21 02:07:50;;;;;;;63.98;27.98;;;;;;;-5.42;85.78;99151.79;1748544;82;21573;-55
2021/01/21 02:10:19;;;;;;;60.65;27.45;;;;;;;-5.47;85.89;99147.66;1748544;82;21147;-55
2021/01/21 02:13:21;;;;;;;56.05;26.27;;;;;;;-5.52;86.14;99133.51;1746780;81;21304;-54
2021/01/21 02:16:04;;;;;;;66.45;29.20;;;;;;;-5.46;86.22;99145.66;1748424;82;21127;-56
2021/01/21 02:18:47;;;;;;;57.00;28.32;;;;;;;-5.52;86.38;99141.05;1748230;81;21151;-55
2021/01/21 02:22:00;;;;;;;68.78;32.15;;;;;;;-5.40;86.40;99112.17;1910500;74;22117;-53
2021/01/21 02:25:07;;;;;;;63.50;28.90;;;;;;;-5.42;86.27;99139.22;1794744;79;21129;-53
2021/01/21 02:27:53;;;;;;;64.30;30.60;;;;;;;-5.54;86.62;99124.97;1816133;79;21174;-54
2021/01/21 02:30:49;;;;;;;65.62;30.35;;;;;;;-5.50;86.88;99134.86;1767197;78;21137;-56
2021/01/21 02:33:47;;;;;;;64.30;29.48;;;;;;;-5.49;86.82;99131.22;1807064;79;21312;-53
2021/01/21 02:36:21;;;;;;;68.67;27.77;;;;;;;-5.42;86.90;99122.88;1795389;80;21101;-52
2021/01/21 02:38:51;;;;;;;57.50;27.32;;;;;;;-5.41;86.77;99133.45;1784305;79;21103;-54
2021/01/21 02:41:20;;;;;;;65.08;29.23;;;;;;;-5.48;87.04;99128.32;1816039;78;21289;-55
2021/01/21 02:43:55;;;;;;;59.15;28.40;;;;;;;-5.43;87.25;99127.42;1795125;80;21129;-54
2021/01/21 02:46:24;;;;;;;62.03;28.73;;;;;;;-5.31;87.02;99123.33;1816176;79;21155;-57
2021/01/21 02:48:55;;;;;;;63.73;28.35;;;;;;;-5.20;86.72;99143.86;1795049;80;21153;-56
2021/01/21 02:51:49;;;;;;;59.08;27.42;;;;;;;-5.20;86.61;99121.22;1816105;79;21138;-57
2021/01/21 02:54:50;;;;;;;60.17;29.40;;;;;;;-5.18;86.53;99141.08;1815958;78;21580;-55
2021/01/21 02:57:36;;;;;;;61.80;28.62;;;;;;;-5.23;86.87;99126.02;1816237;79;21142;-55
2021/01/21 03:00:08;;;;;;;56.98;25.45;;;;;;;-5.27;87.03;99126.55;1795354;80;21153;-55
2021/01/21 03:02:44;;;;;;;52.53;26.10;;;;;;;-5.28;87.23;99115.61;1809779;79;21268;-54
2021/01/21 03:05:14;;;;;;;66.15;30.43;;;;;;;-5.25;87.31;99104.91;1794885;80;21133;-55
2021/01/21 03:07:43;;;;;;;64.37;30.72;;;;;;;-5.22;87.31;99125.25;1784683;79;21292;-55
2021/01/21 03:10:14;;;;;;;56.75;25.82;;;;;;;-5.08;87.32;99132.59;1816105;79;21300;-53
2021/01/21 03:12:43;;;;;;;59.27;29.15;;;;;;;-5.11;86.99;99133.24;1790637;79;21709;-54
2021/01/21 03:15:13;;;;;;;58.58;28.87;;;;;;;-5.16;87.54;99119.44;1815847;79;21123;-55
2021/01/21 03:17:43;;;;;;;61.28;28.80;;;;;;;-5.11;87.49;99103.05;1793467;79;21590;-54
2021/01/21 03:20:14;;;;;;;58.75;23.47;;;;;;;-5.02;87.43;99125.48;1808293;78;21588;-55
2021/01/21 03:22:43;;;;;;;54.08;27.25;;;;;;;-4.95;87.13;99138.16;1795284;80;21275;-56
2021/01/21 03:25:13;;;;;;;56.35;26.97;;;;;;;-4.99;87.28;99132.39;1809956;78;21146;-54
2021/01/21 03:27:42;;;;;;;60.52;28.20;;;;;;;-4.98;87.28;99122.45;1795002;79;21508;-54
2021/01/21 03:30:13;;;;;;;65.85;29.10;;;;;;;-4.91;87.35;99138.86;1815163;79;21295;-56
2021/01/21 03:32:41;;;;;;;55.55;27.98;;;;;;;-4.85;87.26;99128.00;1763742;80;21146;-54
2021/01/21 03:35:11;;;;;;;62.27;27.22;;;;;;;-4.85;86.98;99120.45;1809339;79;21541;-54
2021/01/21 03:37:38;;;;;;;66.17;28.85;;;;;;;-4.86;87.03;99109.87;1794601;79;21160;-55
2021/01/21 03:40:08;;;;;;;59.55;28.73;;;;;;;-4.85;87.19;99122.58;1809152;78;21171;-54
2021/01/21 03:42:41;;;;;;;59.90;28.52;;;;;;;-4.75;87.00;99125.78;1793885;80;21085;-53
2021/01/21 03:45:13;;;;;;;66.07;30.45;;;;;;;-4.77;86.90;99105.91;1814288;79;21138;-53
2021/01/21 03:47:41;;;;;;;67.17;29.12;;;;;;;-4.71;87.06;99123.58;1794646;80;21135;-53
2021/01/21 03:50:10;;;;;;;60.90;30.15;;;;;;;-4.64;86.65;99106.03;1809177;78;21561;-54
2021/01/21 03:52:39;;;;;;;57.78;27.30;;;;;;;-4.66;86.64;99112.20;1794477;80;21299;-52
2021/01/21 03:55:10;;;;;;;64.27;28.83;;;;;;;-4.61;86.73;99115.93;1808723;79;21695;-52
2021/01/21 03:57:39;;;;;;;55.35;24.52;;;;;;;-4.60;86.57;99106.38;1763931;80;21153;-54
2021/01/21 04:00:21;;;;;;;63.17;28.55;;;;;;;-4.60;86.49;99090.00;1812997;79;21161;-54
2021/01/21 04:02:50;;;;;;;63.05;26.52;;;;;;;-4.61;86.74;99102.08;1764046;80;21145;-53
2021/01/21 04:05:36;;;;;;;62.85;26.57;;;;;;;-4.64;86.79;99095.57;1815415;78;21170;-55
2021/01/21 04:08:05;;;;;;;62.93;29.52;;;;;;;-4.66;87.05;99087.02;1815785;79;21135;-57
2021/01/21 04:10:35;;;;;;;54.00;22.37;;;;;;;-4.67;87.21;99095.36;1793631;79;21697;-54
2021/01/21 04:13:05;;;;;;;65.15;28.47;;;;;;;-4.68;87.34;99097.39;1814168;78;21150;-54
2021/01/21 04:15:34;;;;;;;62.45;29.55;;;;;;;-4.73;87.63;99087.37;1794545;79;21149;-55
2021/01/21 04:18:03;;;;;;;61.83;29.52;;;;;;;-4.69;87.76;99092.23;1809109;78;21142;-54
2021/01/21 04:20:33;;;;;;;66.57;28.42;;;;;;;-4.71;87.98;99100.92;1792588;79;21650;-54
2021/01/21 04:23:01;;;;;;;58.20;26.93;;;;;;;-4.71;87.95;99110.13;1809206;78;21146;-54
2021/01/21 04:25:29;;;;;;;67.65;29.92;;;;;;;-4.76;88.39;99105.13;1794482;79;21093;-54
2021/01/21 04:27:57;;;;;;;60.28;27.60;;;;;;;-4.70;88.50;99080.42;1803482;77;21134;-53
2021/01/21 04:30:27;;;;;;;69.37;30.75;;;;;;;-4.67;88.41;99109.59;1792516;77;21272;-53
2021/01/21 04:32:55;;;;;;;64.32;28.90;;;;;;;-4.59;88.34;99095.52;1783225;80;21153;-54
2021/01/21 04:35:23;;;;;;;73.07;31.50;;;;;;;-4.52;88.24;99104.80;1783112;80;21154;-53
2021/01/21 04:37:54;;;;;;;63.48;30.10;;;;;;;-4.49;88.02;99122.25;1783396;80;21173;-54
2021/01/21 04:40:30;;;;;;;61.85;27.70;;;;;;;-4.50;88.10;99101.98;1730344;80;21130;-54
2021/01/21 04:42:59;;;;;;;66.85;30.32;;;;;;;-4.44;88.01;99099.91;1778628;80;21714;-53
2021/01/21 04:45:28;;;;;;;62.40;29.67;;;;;;;-4.42;87.93;99100.52;1783166;79;21245;-54
2021/01/21 04:47:56;;;;;;;71.12;31.07;;;;;;;-4.39;87.80;99082.23;1783307;80;21122;-54
2021/01/21 04:50:28;;;;;;;71.82;31.95;;;;;;;-4.44;87.92;99097.40;1776502;79;21768;-55
2021/01/21 04:53:08;;;;;;;69.58;30.00;;;;;;;-4.47;88.15;99096.80;1781049;79;21305;-55
2021/01/21 04:55:43;;;;;;;69.20;30.48;;;;;;;-4.49;88.24;99097.45;1785571;78;21266;-57
2021/01/21 04:58:39;;;;;;;64.55;29.77;;;;;;;-4.49;88.55;99092.41;1783623;78;21148;-55
2021/01/21 05:01:08;;;;;;;62.93;27.85;;;;;;;-4.47;88.54;99095.92;1830056;78;21146;-54
2021/01/21 05:03:36;;;;;;;72.75;30.97;;;;;;;-4.43;88.54;99097.48;1826230;78;21177;-54
2021/01/21 05:06:10;;;;;;;71.20;30.85;;;;;;;-4.46;88.48;99092.63;1830269;78;21158;-56
2021/01/21 05:08:40;;;;;;;74.07;31.70;;;;;;;-4.49;88.72;99092.03;1791700;78;21169;-54
2021/01/21 05:11:16;;;;;;;71.37;32.75;;;;;;;-4.42;88.66;99117.28;1830194;78;21628;-54
2021/01/21 05:14:02;;;;;;;68.67;32.17;;;;;;;-4.42;88.65;99105.95;1813110;78;21233;-55
2021/01/21 05:16:49;;;;;;;75.87;34.43;;;;;;;-4.41;88.69;99113.98;1815000;78;21193;-55
2021/01/21 05:19:36;;;;;;;68.00;31.30;;;;;;;-4.36;88.67;99114.80;1814699;79;21122;-56
2021/01/21 05:22:18;;;;;;;;;;;;;;;-4.35;88.48;99114.44;1748853;80;21107;-56
2021/01/21 05:24:49;;;;;;;83.52;34.80;;;;;;;-4.38;88.61;99107.90;1793714;79;20294;-56
2021/01/21 05:27:22;;;;;;;70.32;31.60;;;;;;;-4.38;88.72;99114.20;1792771;80;21177;-55
2021/01/21 05:29:51;;;;;;;70.08;32.10;;;;;;;-4.32;88.66;99107.09;1786994;80;21922;-56
2021/01/21 05:32:20;;;;;;;72.85;34.15;;;;;;;-4.29;88.53;99112.34;1811968;79;21134;-54
2021/01/21 05:34:54;;;;;;;76.00;33.20;;;;;;;-4.21;88.53;99122.58;1778672;80;21705;-54
2021/01/21 05:37:26;;;;;;;77.78;33.28;;;;;;;-4.15;88.10;99111.70;1791962;79;21169;-54
2021/01/21 05:39:58;;;;;;;74.35;32.45;;;;;;;-4.19;88.10;99113.49;1790507;80;21589;-56
2021/01/21 05:42:40;;;;;;;80.65;34.80;;;;;;;-4.16;88.19;99099.84;1784361;79;21157;-54
2021/01/21 05:45:24;;;;;;;69.97;30.40;;;;;;;-4.16;88.15;99121.27;1787450;80;21628;-56
2021/01/21 05:47:59;;;;;;;80.87;31.57;;;;;;;-4.18;88.16;99121.53;1809014;78;21305;-55
2021/01/21 05:50:29;;;;;;;68.87;30.90;;;;;;;-4.18;88.17;99102.63;1776735;80;21335;-55
2021/01/21 05:53:03;;;;;;;77.50;30.35;;;;;;;-4.17;88.18;99122.05;1790363;80;21154;-55
2021/01/21 05:55:32;;;;;;;65.87;29.23;;;;;;;-4.18;88.15;99095.47;1811361;79;21194;-54
2021/01/21 05:58:01;;;;;;;70.17;30.70;;;;;;;-4.21;88.35;99116.67;1789855;80;21209;-54
2021/01/21 06:00:32;;;;;;;67.17;29.52;;;;;;;-4.17;88.43;99108.19;1784633;80;21162;-56
2021/01/21 06:03:07;;;;;;;73.62;32.42;;;;;;;-4.12;88.21;99092.49;1824863;78;21541;-56
2021/01/21 06:05:38;;;;;;;61.08;27.93;;;;;;;-4.10;88.22;99114.91;1755355;80;21224;-58
2021/01/21 06:08:06;;;;;;;70.25;31.48;;;;;;;-4.09;88.19;99125.50;1811451;79;21143;-56
2021/01/21 06:10:34;;;;;;;70.60;31.33;;;;;;;-4.08;88.37;99113.38;1789529;80;21303;-54
2021/01/21 06:13:07;;;;;;;68.80;33.23;;;;;;;-4.06;88.33;99108.94;1789661;80;21185;-54
2021/01/21 06:15:37;;;;;;;71.57;31.52;;;;;;;-4.05;88.22;99119.88;1783956;79;21154;-54
2021/01/21 06:18:05;;;;;;;77.03;36.08;;;;;;;-4.03;88.18;99107.02;1780034;80;21194;-55
2021/01/21 06:20:37;;;;;;;71.35;33.35;;;;;;;-4.03;88.26;99134.73;1760402;80;21271;-54
2021/01/21 06:23:16;;;;;;;71.05;34.10;;;;;;;-4.01;88.20;99142.03;1774750;80;21175;-53
2021/01/21 06:25:48;;;;;;;63.42;29.70;;;;;;;-4.01;88.25;99153.38;1759865;80;21204;-54
2021/01/21 06:28:18;;;;;;;78.40;34.33;;;;;;;-3.98;88.26;99140.59;1783095;80;21289;-54
2021/01/21 06:30:55;;;;;;;71.97;29.15;;;;;;;-3.88;88.29;99143.38;1782612;80;21154;-54
2021/01/21 06:33:26;;;;;;;79.42;34.80;;;;;;;-3.81;87.83;99148.09;1808254;77;21133;-53
2021/01/21 06:36:06;;;;;;;68.78;31.40;;;;;;;-3.75;88.00;99140.94;1792516;78;21315;-55
2021/01/21 06:38:43;;;;;;;72.00;34.80;;;;;;;-3.61;87.62;99139.75;1802780;79;21178;-54
2021/01/21 06:41:16;;;;;;;71.05;32.60;;;;;;;-3.50;87.19;99113.64;1780536;79;21378;-55
2021/01/21 06:43:45;;;;;;;74.07;33.85;;;;;;;-3.42;86.86;99122.98;1793613;79;21591;-54
2021/01/21 06:46:15;;;;;;;76.95;34.43;;;;;;;-3.43;86.52;99122.52;1792854;79;21133;-54
2021/01/21 06:48:48;;;;;;;76.07;36.03;;;;;;;-3.44;86.86;99122.88;1798431;79;21124;-54
2021/01/21 06:51:19;;;;;;;77.10;34.03;;;;;;;-3.34;86.74;99129.42;1803708;78;21591;-54
2021/01/21 06:53:53;;;;;;;80.75;34.48;;;;;;;-3.23;86.51;99128.88;1795973;79;21718;-55
2021/01/21 06:56:32;;;;;;;66.62;33.83;;;;;;;-3.14;86.11;99113.11;1798681;78;21154;-55
2021/01/21 06:58:59;;;;;;;78.02;36.68;;;;;;;-3.10;85.74;99113.81;1796792;79;21315;-58
2021/01/21 07:01:42;;;;;;;78.47;36.48;;;;;;;-3.04;85.66;99111.69;1797652;79;21152;-54
2021/01/21 07:04:18;;;;;;;74.87;37.13;;;;;;;-2.99;85.39;99124.63;1795223;79;21189;-55
2021/01/21 07:07:03;;;;;;;76.82;35.08;;;;;;;-2.95;85.25;99111.05;1800935;79;21779;-53
2021/01/21 07:09:27;;;;;;;75.72;35.45;;;;;;;-2.98;85.22;99106.16;1807319;78;21576;-53
2021/01/21 07:11:59;;;;;;;81.92;36.68;;;;;;;-2.97;85.34;99112.59;1789925;79;21355;-53
2021/01/21 07:14:31;;;;;;;69.47;32.53;;;;;;;-2.88;85.34;99124.93;1793428;79;21292;-53
2021/01/21 07:17:05;;;;;;;73.02;35.15;;;;;;;-2.90;84.98;99105.91;1806893;79;21537;-53
2021/01/21 07:19:42;;;;;;;79.80;36.63;;;;;;;-2.94;85.44;99112.78;1801559;79;21204;-53
2021/01/21 07:22:23;;;;;;;78.40;36.68;;;;;;;-2.89;85.39;99125.33;1791688;80;21136;-53
2021/01/21 07:25:08;;;;;;;79.17;37.35;;;;;;;-2.78;85.40;99112.53;1809602;79;21558;-52
2021/01/21 07:27:36;;;;;;;80.22;35.75;;;;;;;-2.70;85.05;99116.42;1790796;80;21181;-56
2021/01/21 07:30:23;;;;;;;79.55;37.75;;;;;;;-2.62;84.81;99107.72;1796375;79;21572;-54
2021/01/21 07:33:16;;;;;;;79.00;37.98;;;;;;;-2.59;84.87;99114.23;1788474;79;21162;-53
2021/01/21 07:35:43;;;;;;;79.42;36.30;;;;;;;-2.48;84.77;99114.52;1794402;79;21301;-56
2021/01/21 07:38:11;;;;;;;81.37;37.85;;;;;;;-2.40;84.46;99117.54;1784570;79;21248;-53
2021/01/21 07:40:46;;;;;;;79.72;39.55;;;;;;;-2.44;84.20;99100.05;1783777;79;21167;-53
2021/01/21 07:43:14;;;;;;;87.53;40.80;;;;;;;-2.47;84.45;99109.97;1802606;79;21167;-53
2021/01/21 07:45:44;;;;;;;84.92;40.43;;;;;;;-2.35;84.50;99100.15;1792317;79;21196;-53
2021/01/21 07:48:22;;;;;;;90.75;39.33;;;;;;;-2.24;84.12;99106.75;1801755;78;21116;-54
2021/01/21 07:50:52;;;;;;;93.50;42.08;;;;;;;-2.15;83.92;99107.73;1801638;79;21128;-53
2021/01/21 07:53:26;;;;;;;82.22;39.55;;;;;;;-2.08;83.60;99095.97;1798967;79;21324;-53
2021/01/21 07:55:57;;;;;;;88.70;40.25;;;;;;;-1.97;83.37;99103.42;1801086;79;21126;-53
2021/01/21 07:58:30;;;;;;;89.50;40.63;;;;;;;-1.86;83.04;99089.31;1790745;80;21133;-54
2021/01/21 08:01:00;;;;;;;79.30;39.45;;;;;;;-1.78;82.76;99100.77;1790327;80;21275;-53
2021/01/21 08:03:39;;;;;;;81.08;40.03;;;;;;;-1.75;82.46;99099.72;1804099;78;21166;-54
2021/01/21 08:06:15;;;;;;;88.33;40.55;;;;;;;-1.65;82.37;99080.91;1784576;79;21690;-53
2021/01/21 08:08:49;;;;;;;80.72;39.73;;;;;;;-1.56;81.95;99085.25;1796456;77;21130;-53
2021/01/21 08:11:19;;;;;;;81.63;39.53;;;;;;;-1.47;81.73;99106.45;1818467;77;21133;-54
2021/01/21 08:13:48;;;;;;;89.80;42.23;;;;;;;-1.30;81.24;99089.33;1767386;80;21142;-53
2021/01/21 08:16:18;;;;;;;91.47;43.48;;;;;;;-1.15;80.67;99111.77;1810098;78;21268;-53
2021/01/21 08:18:46;;;;;;;86.72;39.80;;;;;;;-0.93;80.52;99087.71;1790742;80;21164;-54
2021/01/21 08:21:25;;;;;;;76.05;38.67;;;;;;;-0.82;79.45;99088.33;1807161;78;21598;-53
2021/01/21 08:24:02;;;;;;;83.58;39.23;;;;;;;-0.76;79.21;99102.23;1815113;78;21133;-53
2021/01/21 08:26:32;;;;;;;83.70;38.70;;;;;;;-0.60;78.38;99110.31;1812514;78;21709;-53
2021/01/21 08:29:01;;;;;;;84.10;40.50;;;;;;;-0.41;77.92;99103.34;1793061;80;21287;-53
2021/01/21 08:31:40;;;;;;;81.80;40.40;;;;;;;-0.20;77.35;99101.53;1839372;77;21268;-54
2021/01/21 08:34:19;;;;;;;81.25;40.50;;;;;;;0.00;76.61;99108.60;1787809;80;21146;-53
2021/01/21 08:36:46;;;;;;;84.25;40.20;;;;;;;0.20;76.25;99095.70;1784652;79;21145;-54
2021/01/21 08:39:15;;;;;;;84.85;41.68;;;;;;;0.26;75.38;99102.39;1791512;79;21551;-53
2021/01/21 08:41:44;;;;;;;74.65;37.10;;;;;;;0.45;75.05;99101.70;1780175;80;21146;-53
2021/01/21 08:44:18;;;;;;;79.90;39.58;;;;;;;0.77;73.83;99105.06;1789024;79;21120;-53
2021/01/21 08:46:59;;;;;;;84.13;42.10;;;;;;;0.86;73.09;99109.33;1791624;79;21141;-53
2021/01/21 08:49:34;;;;;;;81.12;40.90;;;;;;;0.85;72.82;99114.81;1809126;78;21229;-53
2021/01/21 08:52:10;;;;;;;79.80;40.90;;;;;;;0.89;72.58;99112.42;1822313;78;21319;-53
2021/01/21 08:54:53;;;;;;;78.70;40.03;;;;;;;1.00;72.36;99098.62;1817334;78;21275;-53
2021/01/21 08:57:22;;;;;;;88.95;44.80;;;;;;;1.06;72.10;99098.52;1816328;77;21149;-53
2021/01/21 08:59:50;;;;;;;75.42;39.67;;;;;;;1.22;71.91;99106.91;1806945;78;21202;-53
2021/01/21 09:02:43;;;;;;;78.75;40.55;;;;;;;1.47;71.20;99104.78;1822821;78;21109;-53
2021/01/21 09:05:12;;;;;;;76.70;42.10;;;;;;;1.59;70.74;99110.88;1800584;78;21144;-52
2021/01/21 09:07:40;;;;;;;78.72;39.48;;;;;;;1.65;70.01;99116.66;1824794;78;21560;-53
2021/01/21 09:10:12;;;;;;;79.42;39.85;;;;;;;1.57;70.11;99098.88;1780362;80;21166;-53
2021/01/21 09:12:40;;;;;;;79.05;39.20;;;;;;;1.50;69.92;99093.51;1788975;80;21296;-53
2021/01/21 09:15:13;;;;;;;76.85;39.98;;;;;;;1.36;70.24;99088.14;1813914;78;21550;-52
2021/01/21 09:17:41;;;;;;;75.47;36.73;;;;;;;1.30;70.72;99095.48;1813359;78;21315;-52
2021/01/21 09:20:24;;;;;;;78.30;36.28;;;;;;;1.39;70.67;99104.80;1787909;80;21130;-54
2021/01/21 09:22:54;;;;;;;66.12;34.08;;;;;;;1.42;70.43;99096.05;1787557;80;21606;-52
2021/01/21 09:25:27;;;;;;;71.65;35.85;;;;;;;1.41;70.21;99068.89;1817757;78;21116;-53
2021/01/21 09:27:56;;;;;;;70.28;37.53;;;;;;;1.38;70.32;99090.36;1818607;77;21122;-52
2021/01/21 09:30:24;;;;;;;69.60;36.05;;;;;;;1.48;70.44;99098.91;1823132;77;21166;-52
2021/01/21 09:32:54;;;;;;;73.83;35.05;;;;;;;1.57;70.03;99075.59;1809215;78;21169;-52
2021/01/21 09:35:24;;;;;;;70.62;36.42;;;;;;;1.52;69.99;99071.55;1788226;80;21129;-52
2021/01/21 09:37:54;;;;;;;69.70;36.77;;;;;;;1.57;70.17;99079.40;1832403;77;21137;-52
2021/01/21 09:40:25;;;;;;;70.75;36.88;;;;;;;1.57;69.90;99092.12;1777364;80;21167;-52
2021/01/21 09:42:55;;;;;;;72.42;37.85;;;;;;;1.59;70.14;99090.53;1821954;78;21299;-52
2021/01/21 09:45:25;;;;;;;69.55;38.65;;;;;;;1.76;69.93;99100.25;1779831;80;21262;-52
2021/01/21 09:47:53;;;;;;;67.67;34.75;;;;;;;1.83;69.76;99088.67;1802810;79;21237;-52
2021/01/21 09:50:23;;;;;;;72.87;36.50;;;;;;;1.90;69.08;99083.95;1794959;78;21278;-52
2021/01/21 09:52:51;;;;;;;66.77;34.53;;;;;;;1.92;69.26;99083.62;1792286;79;21272;-52
2021/01/21 09:55:19;;;;;;;72.90;36.33;;;;;;;1.97;68.96;99076.63;1814827;78;21260;-52
2021/01/21 09:57:47;;;;;;;72.27;35.80;;;;;;;1.98;69.14;99072.85;1807460;77;21177;-53
2021/01/21 10:00:16;;;;;;;66.70;34.58;;;;;;;2.05;68.77;99075.30;1801442;78;21163;-54
2021/01/21 10:02:44;;;;;;;67.30;36.00;;;;;;;2.02;68.41;99076.43;1809132;78;21168;-52
2021/01/21 10:05:14;;;;;;;88.42;39.90;;;;;;;1.99;68.72;99072.48;1788798;78;21610;-52
2021/01/21 10:07:41;;;;;;;68.95;36.63;;;;;;;1.97;68.74;99071.13;1820399;78;21140;-52
2021/01/21 10:10:10;;;;;;;70.05;35.90;;;;;;;1.88;68.71;99065.59;1812117;78;21252;-52
2021/01/21 10:12:38;;;;;;;73.15;36.80;;;;;;;1.79;69.15;99075.36;1811741;78;21153;-53
2021/01/21 10:15:08;;;;;;;68.40;36.35;;;;;;;1.78;69.36;99063.05;1791443;79;21296;-53
2021/01/21 10:17:36;;;;;;;70.30;35.68;;;;;;;1.78;69.42;99070.67;1810198;77;21152;-55
2021/01/21 10:20:06;;;;;;;68.95;36.45;;;;;;;1.78;69.53;99041.79;1828521;77;21351;-53
2021/01/21 10:22:34;;;;;;;71.57;35.68;;;;;;;1.79;69.67;99071.55;1791704;78;21656;-53
2021/01/21 10:25:01;;;;;;;69.70;36.42;;;;;;;1.81;69.47;99073.36;1781069;80;21181;-52
2021/01/21 10:27:29;;;;;;;71.67;36.03;;;;;;;1.78;69.59;99056.68;1764748;80;21211;-52
2021/01/21 10:29:57;;;;;;;74.32;36.77;;;;;;;1.79;69.79;99067.72;1808748;79;21166;-53
2021/01/21 10:32:26;;;;;;;73.50;38.00;;;;;;;1.85;69.76;99066.32;1805973;79;21268;-52
2021/01/21 10:34:54;;;;;;;74.80;36.55;;;;;;;1.74;69.99;99058.59;1797024;78;21184;-53
2021/01/21 10:37:23;;;;;;;71.60;35.90;;;;;;;1.70;70.17;99055.42;1791202;79;21151;-53
2021/01/21 10:39:52;;;;;;;64.40;34.15;;;;;;;1.71;70.14;99020.30;1789636;79;21192;-53
2021/01/21 10:42:21;;;;;;;69.95;35.17;;;;;;;1.64;70.39;99044.97;1793615;79;21600;-54
2021/01/21 10:44:48;;;;;;;68.57;36.88;;;;;;;1.58;70.74;99039.57;1803005;79;21320;-53
2021/01/21 10:47:16;;;;;;;70.15;38.63;;;;;;;1.54;71.01;99031.34;1798685;78;21311;-53
2021/01/21 10:49:44;;;;;;;68.65;34.05;;;;;;;1.57;71.25;99025.13;1796978;78;21154;-53
2021/01/21 10:52:12;;;;;;;65.92;34.58;;;;;;;1.66;70.96;99039.16;1796627;78;21218;-52
2021/01/21 10:54:40;;;;;;;63.42;34.23;;;;;;;1.75;70.78;99027.25;1779036;80;21165;-53
2021/01/21 10:57:08;;;;;;;69.22;35.83;;;;;;;1.80;70.53;99027.06;1790569;79;21160;-52
2021/01/21 10:59:35;;;;;;;63.90;31.77;;;;;;;1.79;70.63;99029.16;1788860;79;21305;-56
2021/01/21 11:02:03;;;;;;;65.00;33.55;;;;;;;1.72;70.68;99015.67;1794492;79;21296;-53
2021/01/21 11:04:31;;;;;;;68.95;35.60;;;;;;;1.73;70.93;99022.48;1782071;80;21693;-53
2021/01/21 11:06:59;;;;;;;73.95;37.63;;;;;;;1.78;70.84;99018.52;1793633;79;21136;-52
2021/01/21 11:09:36;;;;;;;72.72;36.85;;;;;;;1.86;70.82;99037.95;1790487;79;21289;-53
2021/01/21 11:12:06;;;;;;;71.12;38.67;;;;;;;2.00;70.53;99030.94;1804538;77;21545;-52
2021/01/21 11:14:34;;;;;;;66.77;37.70;;;;;;;2.11;70.36;99022.11;1774552;80;21184;-53
2021/01/21 11:17:03;;;;;;;74.65;37.50;;;;;;;2.22;70.11;99035.34;1797873;78;21255;-53
2021/01/21 11:19:31;;;;;;;75.00;38.40;;;;;;;2.33;69.41;99026.50;1814234;78;21196;-53
2021/01/21 11:21:59;;;;;;;66.87;35.00;;;;;;;2.39;69.20;99014.92;1795087;78;21165;-53
2021/01/21 11:24:27;;;;;;;71.60;36.45;;;;;;;2.26;69.03;99025.34;1784495;79;21291;-53
2021/01/21 11:26:55;;;;;;;68.90;36.40;;;;;;;2.15;69.40;99015.09;1776285;80;21170;-54
2021/01/21 11:29:24;;;;;;;75.87;36.85;;;;;;;2.15;69.75;99008.73;1791913;79;21141;-53
2021/01/21 11:31:53;;;;;;;68.85;36.50;;;;;;;2.15;69.67;99013.82;1769296;79;21140;-54
2021/01/21 11:34:22;;;;;;;72.60;36.88;;;;;;;2.24;69.79;99009.53;1778114;79;21292;-53
2021/01/21 11:36:54;;;;;;;63.15;32.17;;;;;;;2.38;69.68;99023.34;1784270;80;21608;-53
2021/01/21 11:39:22;;;;;;;67.30;37.45;;;;;;;2.48;68.97;99021.22;1763600;79;21176;-53
2021/01/21 11:41:50;;;;;;;71.17;36.17;;;;;;;2.49;69.08;99021.67;1780049;79;21122;-54